Time;durP1;ratioP1;P1;durP2;ratioP2;P2;SDS_P1;SDS_P2;PMS_P1;PMS_P2;Temp;Humidity;BMP_temperature;BMP_pressure;BME280_temperature;BME280_humidity;BME280_pressure;Samples;Min_cycle;Max_cycle;Signal;HPM_P1;HPM_P2
2023/05/22 04:54:04;;;;;;;34.85;19.70;;;18.00;79.20;;;;;;4782754;29;20559;-64
2023/05/22 04:56:30;;;;;;;43.15;19.15;;;17.90;79.00;;;;;;4790012;30;20051;-65
2023/05/22 04:58:56;;;;;;;28.30;17.10;;;17.90;78.90;;;;;;4790057;30;20124;-66
2023/05/22 05:01:23;;;;;;;34.13;18.02;;;18.00;78.50;;;;;;4789864;29;20062;-66
2023/05/22 05:03:49;;;;;;;35.15;17.77;;;17.90;78.70;;;;;;4778744;30;20376;-66
2023/05/22 05:06:16;;;;;;;31.83;17.85;;;17.90;79.60;;;;;;4771930;30;20052;-65
2023/05/22 05:08:43;;;;;;;27.00;15.00;;;17.90;79.30;;;;;;4772298;30;20532;-66
2023/05/22 05:11:09;;;;;;;31.08;16.05;;;18.00;79.50;;;;;;4772296;30;20055;-66
2023/05/22 05:13:34;;;;;;;36.72;17.30;;;18.00;79.60;;;;;;4778550;30;20065;-66
2023/05/22 05:16:00;;;;;;;36.28;15.75;;;18.00;79.50;;;;;;4789673;30;20421;-66
2023/05/22 05:18:27;;;;;;;44.25;14.63;;;18.00;79.50;;;;;;4789839;30;20047;-65
2023/05/22 05:20:53;;;;;;;43.45;15.23;;;18.00;79.50;;;;;;4786193;30;20091;-66
2023/05/22 05:23:19;;;;;;;46.35;14.70;;;18.10;79.50;;;;;;4785088;30;20101;-68
2023/05/22 05:25:45;;;;;;;41.63;13.65;;;18.10;79.40;;;;;;4781287;30;20071;-67
2023/05/22 05:28:11;;;;;;;34.22;13.57;;;18.10;79.30;;;;;;4782790;30;20047;-66
2023/05/22 05:30:38;;;;;;;31.73;12.60;;;18.10;79.40;;;;;;4786733;29;20379;-65
2023/05/22 05:33:04;;;;;;;31.67;11.38;;;18.10;79.40;;;;;;4789916;29;20467;-67
2023/05/22 05:35:30;;;;;;;26.30;10.35;;;18.10;79.30;;;;;;4789563;30;20486;-66
2023/05/22 05:37:57;;;;;;;33.88;12.38;;;18.10;79.30;;;;;;4790484;29;20084;-67
2023/05/22 05:40:23;;;;;;;22.05;10.13;;;18.10;79.30;;;;;;4793349;30;20075;-66
2023/05/22 05:42:49;;;;;;;18.60;9.63;;;18.20;78.90;;;;;;4792761;30;20130;-67
2023/05/22 05:45:15;;;;;;;20.70;9.35;;;18.10;78.60;;;;;;4793323;30;20077;-66
2023/05/22 05:47:41;;;;;;;21.23;9.32;;;18.10;78.40;;;;;;4792981;30;20352;-65
2023/05/22 05:50:07;;;;;;;13.82;7.95;;;18.10;78.30;;;;;;4791858;29;20058;-66
2023/05/22 05:52:33;;;;;;;18.08;9.25;;;18.10;78.20;;;;;;4792783;29;20163;-66
2023/05/22 05:54:59;;;;;;;18.25;8.55;;;18.00;78.10;;;;;;4791501;30;20059;-66
2023/05/22 05:57:30;;;;;;;19.13;8.60;;;18.00;78.20;;;;;;4792897;30;20479;-65
2023/05/22 05:59:55;;;;;;;23.55;9.15;;;18.00;78.30;;;;;;4777260;30;20083;-67
2023/05/22 06:02:21;;;;;;;28.27;9.57;;;18.00;78.30;;;;;;4791115;30;20117;-67
2023/05/22 06:04:47;;;;;;;21.08;8.98;;;18.00;78.30;;;;;;4792284;30;20066;-67
2023/05/22 06:07:14;;;;;;;19.42;6.68;;;18.00;78.30;;;;;;4791683;30;20055;-66
2023/05/22 06:09:40;;;;;;;18.88;7.03;;;18.00;78.30;;;;;;4777247;30;20459;-67
2023/05/22 06:12:06;;;;;;;13.23;6.15;;;18.00;78.30;;;;;;4787967;30;20047;-67
2023/05/22 06:14:32;;;;;;;16.48;6.70;;;18.00;78.10;;;;;;4774750;30;20131;-67
2023/05/22 06:16:58;;;;;;;13.50;6.53;;;18.00;78.00;;;;;;4774658;30;20135;-66
2023/05/22 06:19:23;;;;;;;19.60;7.60;;;18.00;78.00;;;;;;4774603;30;20068;-66
2023/05/22 06:21:49;;;;;;;16.23;7.25;;;18.00;78.00;;;;;;4776525;30;20047;-67
2023/05/22 06:24:15;;;;;;;16.48;6.85;;;18.00;77.90;;;;;;4786707;29;20051;-67
2023/05/22 06:26:41;;;;;;;15.35;7.43;;;18.00;77.90;;;;;;4774473;30;20091;-66
2023/05/22 06:29:06;;;;;;;15.20;6.88;;;18.00;77.80;;;;;;4774370;30;20060;-67
2023/05/22 06:31:34;;;;;;;19.70;6.28;;;18.10;77.80;;;;;;4774360;30;20524;-67
2023/05/22 06:34:00;;;;;;;14.48;6.88;;;18.00;77.80;;;;;;4792265;29;20379;-67
2023/05/22 06:36:26;;;;;;;15.52;6.47;;;18.00;77.80;;;;;;4792469;30;20420;-67
2023/05/22 06:38:53;;;;;;;10.95;6.10;;;18.10;77.90;;;;;;4792365;29;20098;-67
2023/05/22 06:41:20;;;;;;;15.52;6.75;;;18.10;77.80;;;;;;4776747;30;20074;-67
2023/05/22 06:43:46;;;;;;;18.15;8.10;;;18.10;77.80;;;;;;4791773;30;20195;-67
2023/05/22 06:46:11;;;;;;;13.45;6.72;;;18.10;77.90;;;;;;4791383;30;20058;-68
2023/05/22 06:48:37;;;;;;;14.60;7.10;;;18.00;77.90;;;;;;4792359;30;20393;-67
2023/05/22 06:51:03;;;;;;;13.13;7.60;;;18.00;77.90;;;;;;4791100;29;20414;-66
2023/05/22 06:53:29;;;;;;;16.35;7.57;;;18.00;78.00;;;;;;4790348;29;20059;-68
2023/05/22 06:55:55;;;;;;;17.13;7.50;;;18.00;78.10;;;;;;4791992;30;20051;-67
2023/05/22 06:58:21;;;;;;;13.35;8.38;;;18.00;78.20;;;;;;4776473;30;20051;-67
2023/05/22 07:00:47;;;;;;;15.50;7.50;;;18.00;78.40;;;;;;4792083;30;20141;-66
2023/05/22 07:03:12;;;;;;;17.30;7.90;;;18.10;78.60;;;;;;4780070;30;20360;-66
2023/05/22 07:05:38;;;;;;;13.00;7.25;;;18.00;78.50;;;;;;4789643;30;20082;-66
2023/05/22 07:08:05;;;;;;;14.50;8.13;;;18.00;78.70;;;;;;4791613;30;20117;-68
2023/05/22 07:10:30;;;;;;;26.30;9.38;;;18.10;78.80;;;;;;4791899;30;20348;-66
2023/05/22 07:12:56;;;;;;;21.45;8.38;;;18.10;79.00;;;;;;4770623;30;20124;-67
2023/05/22 07:15:22;;;;;;;19.52;8.60;;;18.10;79.10;;;;;;4773569;30;20130;-67
2023/05/22 07:17:48;;;;;;;12.90;6.68;;;18.00;79.10;;;;;;4773722;30;20124;-67
2023/05/22 07:20:14;;;;;;;19.75;8.52;;;18.10;79.10;;;;;;4779992;29;20376;-66
2023/05/22 07:22:40;;;;;;;19.30;7.68;;;18.10;79.00;;;;;;4780893;30;20114;-66
2023/05/22 07:25:06;;;;;;;14.48;7.72;;;18.10;79.00;;;;;;4773623;30;20408;-66
2023/05/22 07:27:32;;;;;;;18.88;7.50;;;18.00;79.00;;;;;;4773746;30;20066;-65
2023/05/22 07:29:58;;;;;;;25.38;8.50;;;18.10;79.10;;;;;;4773347;30;20055;-67
2023/05/22 07:32:23;;;;;;;20.40;7.78;;;18.10;79.10;;;;;;4777977;30;20460;-66
2023/05/22 07:34:49;;;;;;;12.05;7.07;;;18.10;79.10;;;;;;4789828;30;20047;-66
2023/05/22 07:37:15;;;;;;;16.45;7.03;;;18.10;79.20;;;;;;4780911;30;20043;-66
2023/05/22 07:39:41;;;;;;;23.20;8.52;;;18.00;79.20;;;;;;4791029;30;20092;-66
2023/05/22 07:42:07;;;;;;;14.05;7.22;;;18.10;79.80;;;;;;4780521;30;20111;-66
2023/05/22 07:44:33;;;;;;;16.73;7.55;;;18.10;79.90;;;;;;4757512;30;20087;-66
2023/05/22 07:46:58;;;;;;;14.15;7.40;;;18.10;79.80;;;;;;4780497;30;20096;-65
2023/05/22 07:49:24;;;;;;;17.85;8.20;;;18.10;80.00;;;;;;4786100;30;20047;-66
2023/05/22 07:51:51;;;;;;;14.98;6.43;;;18.10;80.00;;;;;;4793086;29;20077;-65
2023/05/22 07:54:17;;;;;;;19.33;7.45;;;18.20;80.10;;;;;;4791195;30;20059;-65
2023/05/22 07:56:44;;;;;;;12.63;7.53;;;18.20;80.30;;;;;;4791071;30;20078;-64
2023/05/22 07:59:11;;;;;;;19.83;7.40;;;18.20;80.30;;;;;;4790761;30;20047;-65
2023/05/22 08:01:37;;;;;;;14.55;7.07;;;18.20;80.20;;;;;;4789145;29;20463;-63
2023/05/22 08:04:04;;;;;;;13.18;7.25;;;18.30;80.20;;;;;;4791601;29;20055;-64
2023/05/22 08:06:30;;;;;;;11.00;6.63;;;18.30;80.20;;;;;;4808749;29;20058;-66
2023/05/22 08:08:56;;;;;;;14.75;7.10;;;18.30;80.00;;;;;;4808846;29;20064;-65
2023/05/22 08:11:21;;;;;;;12.57;7.20;;;18.30;79.90;;;;;;4792903;29;20058;-67
2023/05/22 08:13:47;;;;;;;10.43;6.70;;;18.40;79.80;;;;;;4808641;29;20047;-66
2023/05/22 08:16:13;;;;;;;11.27;6.85;;;18.40;79.80;;;;;;4808427;29;20054;-67
2023/05/22 08:18:39;;;;;;;12.38;6.28;;;18.40;79.70;;;;;;4808512;29;20397;-67
2023/05/22 08:21:05;;;;;;;11.38;7.07;;;18.40;79.50;;;;;;4807504;29;20482;-67
2023/05/22 08:23:31;;;;;;;9.57;5.65;;;18.40;79.30;;;;;;4790733;29;20050;-66
2023/05/22 08:25:57;;;;;;;11.55;6.80;;;18.40;79.00;;;;;;4808517;29;20050;-66
2023/05/22 08:28:23;;;;;;;9.65;5.68;;;18.40;79.00;;;;;;4808539;29;20058;-67
2023/05/22 08:30:49;;;;;;;11.35;6.63;;;18.40;79.00;;;;;;4808155;29;20054;-66
2023/05/22 08:33:15;;;;;;;11.82;6.40;;;18.30;78.90;;;;;;4791961;29;20059;-67
2023/05/22 08:35:41;;;;;;;9.95;6.07;;;18.30;78.80;;;;;;4789995;30;20061;-67
2023/05/22 08:38:06;;;;;;;10.98;6.65;;;18.30;78.70;;;;;;4789239;30;20539;-69
2023/05/22 08:40:37;;;;;;;12.80;6.75;;;18.30;78.70;;;;;;4790919;30;20059;-67
2023/05/22 08:43:06;;;;;;;7.18;5.60;;;18.30;78.70;;;;;;4791102;29;20123;-67
2023/05/22 08:45:35;;;;;;;10.40;5.63;;;18.30;78.80;;;;;;4804550;29;20055;-67
2023/05/22 08:48:04;;;;;;;11.63;6.10;;;18.30;78.80;;;;;;4790000;29;20470;-66
2023/05/22 08:50:31;;;;;;;11.90;5.80;;;18.30;78.80;;;;;;4790366;30;20123;-67
2023/05/22 08:53:01;;;;;;;10.30;5.38;;;18.30;78.80;;;;;;4800546;29;20076;-67
2023/05/22 08:55:27;;;;;;;9.85;5.82;;;18.30;78.90;;;;;;4808214;29;20383;-67
2023/05/22 08:57:58;;;;;;;10.25;6.13;;;18.30;78.90;;;;;;4806993;29;20382;-67
2023/05/22 09:00:24;;;;;;;14.77;5.78;;;18.30;79.00;;;;;;4803082;29;20051;-67
2023/05/22 09:02:51;;;;;;;10.00;5.22;;;18.20;78.90;;;;;;4806593;29;20454;-69
2023/05/22 09:05:17;;;;;;;8.27;5.35;;;18.20;78.90;;;;;;4801751;29;20067;-68
2023/05/22 09:07:43;;;;;;;10.55;5.47;;;18.30;78.80;;;;;;4807460;29;20135;-66
2023/05/22 09:10:10;;;;;;;12.95;5.43;;;18.30;79.00;;;;;;4807050;29;20409;-66
2023/05/22 09:12:35;;;;;;;12.35;5.00;;;18.20;78.90;;;;;;4800666;29;20062;-67
2023/05/22 09:15:12;;;;;;;10.65;5.57;;;18.30;79.00;;;;;;4793960;30;20047;-67
2023/05/22 09:17:39;;;;;;;14.13;5.90;;;18.30;78.90;;;;;;4777874;30;20119;-67
2023/05/22 09:20:06;;;;;;;8.48;4.93;;;18.30;79.00;;;;;;4793769;30;20059;-66
2023/05/22 09:22:37;;;;;;;12.23;5.25;;;18.30;79.00;;;;;;4799501;29;20059;-69
2023/05/22 09:25:04;;;;;;;10.80;5.13;;;18.30;79.20;;;;;;4795405;29;20050;-65
2023/05/22 09:27:30;;;;;;;9.15;5.03;;;18.30;79.20;;;;;;4811354;29;20059;-68
2023/05/22 09:29:57;;;;;;;12.68;5.75;;;18.30;79.10;;;;;;4811319;29;20133;-66
2023/05/22 09:32:23;;;;;;;11.65;5.10;;;18.30;79.20;;;;;;4806642;29;20528;-68
2023/05/22 09:34:49;;;;;;;7.60;4.70;;;18.30;79.10;;;;;;4793154;29;20058;-66
2023/05/22 09:37:16;;;;;;;16.17;5.95;;;18.30;79.10;;;;;;4801400;29;20087;-70
2023/05/22 09:39:45;;;;;;;16.70;5.65;;;18.30;79.10;;;;;;4795611;29;20054;-67
2023/05/22 09:42:13;;;;;;;12.45;5.05;;;18.40;79.30;;;;;;4810846;29;20051;-69
2023/05/22 09:44:43;;;;;;;10.75;5.13;;;18.40;79.20;;;;;;4810611;29;20055;-67
2023/05/22 09:47:10;;;;;;;12.48;5.32;;;18.30;79.10;;;;;;4808748;29;20486;-68
2023/05/22 09:49:43;;;;;;;10.25;4.80;;;18.30;79.10;;;;;;4793130;29;20051;-67
2023/05/22 09:52:11;;;;;;;9.88;5.28;;;18.30;79.00;;;;;;4792875;30;20082;-68
2023/05/22 09:54:54;;;;;;;9.13;4.85;;;18.30;78.90;;;;;;4792638;29;20063;-67
2023/05/22 09:57:23;;;;;;;9.52;4.80;;;18.30;78.90;;;;;;4795031;29;20473;-67
2023/05/22 09:59:56;;;;;;;7.18;4.05;;;18.30;79.00;;;;;;4794667;29;20055;-66
2023/05/22 10:02:24;;;;;;;6.55;4.40;;;18.30;79.00;;;;;;4810940;29;20059;-68
2023/05/22 10:04:50;;;;;;;6.88;4.60;;;18.30;79.00;;;;;;4810997;29;20398;-67
2023/05/22 10:07:26;;;;;;;10.55;4.82;;;18.30;78.90;;;;;;4792709;29;20061;-67
2023/05/22 10:10:14;;;;;;;6.88;4.47;;;18.30;78.90;;;;;;4792684;29;20090;-66
2023/05/22 10:12:49;;;;;;;7.70;4.65;;;18.30;78.80;;;;;;4792737;30;20051;-67
2023/05/22 10:15:16;;;;;;;7.13;4.32;;;18.30;78.90;;;;;;4792892;30;20204;-66
2023/05/22 10:17:43;;;;;;;6.82;4.38;;;18.30;78.80;;;;;;4797566;29;20062;-66
2023/05/22 10:20:11;;;;;;;6.65;4.90;;;18.30;78.80;;;;;;4810760;29;20352;-67
2023/05/22 10:22:37;;;;;;;8.52;4.20;;;18.30;78.80;;;;;;4794970;29;20143;-67
2023/05/22 10:25:04;;;;;;;5.90;4.13;;;18.30;78.80;;;;;;4809821;29;20046;-67
2023/05/22 10:27:30;;;;;;;7.75;4.38;;;18.40;78.80;;;;;;4806978;29;20082;-68
2023/05/22 10:30:16;;;;;;;5.28;4.40;;;18.30;78.70;;;;;;4792388;30;20077;-66
2023/05/22 10:33:19;;;;;;;6.97;4.45;;;18.40;78.70;;;;;;4779799;30;20067;-67
2023/05/22 10:35:57;;;;;;;6.95;3.95;;;18.40;78.70;;;;;;4792334;30;20063;-66
2023/05/22 10:38:42;;;;;;;5.90;4.20;;;18.40;78.70;;;;;;4801402;29;20374;-66
2023/05/22 10:41:09;;;;;;;6.05;4.47;;;18.40;78.70;;;;;;4810339;29;20051;-67
2023/05/22 10:43:41;;;;;;;7.97;4.85;;;18.30;78.70;;;;;;4794293;29;20098;-66
2023/05/22 10:46:08;;;;;;;6.80;4.32;;;18.40;78.70;;;;;;4810430;29;20069;-67
2023/05/22 10:48:38;;;;;;;5.65;4.78;;;18.40;78.70;;;;;;4799202;29;20102;-66
2023/05/22 10:51:07;;;;;;;7.10;4.57;;;18.40;78.70;;;;;;4791919;30;20527;-66
2023/05/22 10:53:34;;;;;;;8.63;4.90;;;18.40;78.70;;;;;;4792097;30;20479;-66
2023/05/22 10:56:10;;;;;;;6.90;5.35;;;18.40;78.70;;;;;;4790754;30;20455;-66
2023/05/22 10:58:36;;;;;;;6.70;4.60;;;18.40;78.70;;;;;;4791814;29;20043;-67
2023/05/22 11:01:15;;;;;;;5.97;5.07;;;18.40;78.70;;;;;;4791923;30;21468;-67
2023/05/22 11:04:00;;;;;;;8.70;4.82;;;18.40;78.70;;;;;;4791435;30;20359;-68
2023/05/22 11:07:14;;;;;;;8.20;5.50;;;18.50;78.70;;;;;;4790894;30;20101;-66
2023/05/22 11:09:47;;;;;;;6.80;5.13;;;18.50;78.80;;;;;;4697773;30;20053;-68
2023/05/22 11:12:20;;;;;;;6.63;4.75;;;18.50;78.80;;;;;;4775482;30;20067;-66
2023/05/22 11:14:57;;;;;;;9.73;5.73;;;18.40;78.80;;;;;;4786818;30;20380;-67
2023/05/22 11:17:28;;;;;;;8.50;6.32;;;18.40;78.80;;;;;;4774735;30;20056;-66
2023/05/22 11:20:01;;;;;;;6.90;5.22;;;18.50;78.90;;;;;;4791351;30;20352;-66
2023/05/22 11:22:39;;;;;;;6.40;5.72;;;18.50;78.90;;;;;;4791490;30;20059;-69
2023/05/22 11:25:19;;;;;;;8.68;6.57;;;18.50;78.70;;;;;;4791799;29;20051;-71
2023/05/22 11:27:46;;;;;;;8.15;6.28;;;18.60;78.70;;;;;;4786489;30;20070;-66
2023/05/22 11:30:13;;;;;;;7.93;6.00;;;18.60;78.70;;;;;;4774186;30;20060;-67
2023/05/22 11:32:43;;;;;;;9.50;5.75;;;18.60;78.70;;;;;;4773774;30;20110;-66
2023/05/22 11:35:17;;;;;;;10.73;6.60;;;18.60;78.70;;;;;;4773412;30;20448;-69
2023/05/22 11:37:43;;;;;;;7.57;6.32;;;18.60;78.70;;;;;;4776379;30;20051;-68
2023/05/22 11:40:09;;;;;;;8.68;6.43;;;18.60;78.50;;;;;;4791546;30;20077;-65
2023/05/22 11:42:36;;;;;;;14.65;6.75;;;18.70;78.40;;;;;;4790569;30;20055;-66
2023/05/22 11:45:03;;;;;;;10.43;7.13;;;18.70;78.60;;;;;;4791218;30;20074;-66
2023/05/22 11:47:30;;;;;;;20.95;7.75;;;18.70;79.10;;;;;;4781332;30;20059;-66
2023/05/22 11:49:56;;;;;;;8.13;5.97;;;18.70;79.40;;;;;;4790920;30;20459;-65
2023/05/22 11:52:22;;;;;;;8.63;6.82;;;18.70;79.40;;;;;;4807935;29;20070;-66
2023/05/22 11:54:50;;;;;;;8.00;6.20;;;18.70;79.40;;;;;;4808707;29;20047;-66
2023/05/22 11:57:16;;;;;;;9.65;6.43;;;18.70;79.30;;;;;;4808976;29;20059;-66
2023/05/22 11:59:51;;;;;;;8.98;6.38;;;18.70;79.30;;;;;;4791570;29;20062;-67
2023/05/22 12:02:18;;;;;;;7.85;6.03;;;18.70;79.30;;;;;;4774802;30;20051;-66
2023/05/22 12:04:45;;;;;;;7.63;6.10;;;18.70;79.20;;;;;;4790803;30;20050;-67
2023/05/22 12:07:11;;;;;;;10.32;6.65;;;18.70;79.00;;;;;;4790682;30;20035;-66
2023/05/22 12:09:38;;;;;;;10.98;6.80;;;18.70;78.90;;;;;;4806447;29;20065;-66
2023/05/22 12:12:04;;;;;;;7.60;6.35;;;18.70;78.80;;;;;;4808924;29;20429;-66
2023/05/22 12:14:31;;;;;;;9.43;6.30;;;18.70;78.80;;;;;;4793249;29;20050;-67
2023/05/22 12:17:00;;;;;;;12.35;6.55;;;18.70;78.70;;;;;;4809022;29;20062;-66
2023/05/22 12:19:26;;;;;;;8.13;6.75;;;18.70;78.70;;;;;;4793444;29;20379;-66
2023/05/22 12:21:53;;;;;;;10.70;6.93;;;18.70;78.70;;;;;;4790618;30;20128;-66
2023/05/22 12:24:22;;;;;;;9.60;6.22;;;18.70;78.70;;;;;;4790499;30;20086;-66
2023/05/22 12:26:49;;;;;;;9.95;6.90;;;18.70;78.60;;;;;;4790392;30;20124;-66
2023/05/22 12:29:15;;;;;;;12.02;6.32;;;18.70;78.70;;;;;;4803542;29;20086;-66
2023/05/22 12:31:45;;;;;;;9.20;6.55;;;18.70;78.60;;;;;;4808434;29;20093;-66
2023/05/22 12:34:11;;;;;;;8.15;6.75;;;18.70;78.60;;;;;;4792643;29;20059;-66
2023/05/22 12:36:44;;;;;;;10.25;6.30;;;18.70;79.20;;;;;;4802615;29;20051;-66
2023/05/22 12:39:15;;;;;;;6.68;5.95;;;18.70;78.60;;;;;;4790226;30;20069;-66
2023/05/22 12:41:42;;;;;;;8.05;6.18;;;18.70;78.50;;;;;;4790303;30;20063;-66
2023/05/22 12:44:08;;;;;;;8.98;6.88;;;18.70;78.60;;;;;;4790400;30;20067;-67
2023/05/22 12:46:34;;;;;;;11.63;7.15;;;18.70;78.40;;;;;;4794902;29;20120;-67
2023/05/22 12:49:00;;;;;;;8.57;6.78;;;18.70;78.30;;;;;;4807643;29;20051;-66
2023/05/22 12:51:28;;;;;;;13.05;6.60;;;18.70;78.20;;;;;;4792253;29;20069;-67
2023/05/22 12:53:58;;;;;;;12.15;7.35;;;18.70;78.20;;;;;;4792411;29;20063;-67
2023/05/22 12:56:24;;;;;;;15.25;7.30;;;18.80;78.30;;;;;;4803824;29;20051;-65
2023/05/22 12:58:50;;;;;;;15.65;7.55;;;18.70;78.20;;;;;;4789982;29;20120;-65
2023/05/22 13:01:16;;;;;;;15.45;8.57;;;18.80;78.40;;;;;;4775035;30;20443;-66
2023/05/22 13:03:42;;;;;;;21.73;8.18;;;18.80;78.50;;;;;;4789973;29;20063;-66
2023/05/22 13:06:08;;;;;;;20.58;8.43;;;18.80;78.60;;;;;;4804421;29;20174;-66
2023/05/22 13:08:34;;;;;;;16.85;7.07;;;18.80;78.60;;;;;;4790197;30;20055;-66
2023/05/22 13:10:59;;;;;;;16.67;7.82;;;18.80;78.70;;;;;;4789768;30;20452;-66
2023/05/22 13:13:25;;;;;;;15.77;7.72;;;18.70;78.70;;;;;;4790233;30;20133;-66
2023/05/22 13:15:51;;;;;;;14.65;7.88;;;18.80;78.80;;;;;;4789738;30;20048;-66
2023/05/22 13:18:17;;;;;;;19.50;8.63;;;18.70;78.90;;;;;;4804104;29;20055;-65
2023/05/22 13:20:43;;;;;;;14.60;7.63;;;18.70;79.20;;;;;;4799185;29;20469;-65
2023/05/22 13:23:09;;;;;;;13.57;7.60;;;18.80;79.80;;;;;;4807720;29;20046;-66
2023/05/22 13:25:34;;;;;;;12.63;7.40;;;18.90;79.60;;;;;;4799586;29;20053;-65
2023/05/22 13:28:02;;;;;;;16.70;8.50;;;18.90;79.40;;;;;;4808128;29;20058;-65
2023/05/22 13:30:28;;;;;;;17.30;7.88;;;18.90;79.30;;;;;;4808115;29;20370;-66
2023/05/22 13:32:54;;;;;;;18.85;7.63;;;18.90;79.20;;;;;;4803401;29;20051;-69
2023/05/22 13:35:20;;;;;;;19.83;8.07;;;18.90;79.20;;;;;;4807201;29;20062;-66
2023/05/22 13:37:46;;;;;;;18.10;8.38;;;18.90;79.00;;;;;;4807944;29;20054;-66
2023/05/22 13:40:12;;;;;;;16.83;8.38;;;18.90;79.00;;;;;;4808082;29;20348;-65
2023/05/22 13:42:38;;;;;;;16.38;7.38;;;18.90;79.40;;;;;;4798782;29;20068;-66
2023/05/22 13:45:04;;;;;;;19.45;8.85;;;18.90;79.60;;;;;;4803081;29;20137;-66
2023/05/22 13:47:30;;;;;;;14.57;9.00;;;18.90;79.50;;;;;;4789511;30;20058;-68
2023/05/22 13:49:59;;;;;;;14.10;8.73;;;18.90;79.50;;;;;;4788661;30;20451;-65
2023/05/22 13:52:26;;;;;;;19.65;9.43;;;18.90;79.70;;;;;;4795297;29;20075;-66
2023/05/22 13:54:51;;;;;;;14.07;8.20;;;18.90;79.80;;;;;;4806915;29;20107;-67
2023/05/22 13:57:17;;;;;;;12.93;8.00;;;18.90;79.80;;;;;;4807157;29;20478;-66
2023/05/22 13:59:43;;;;;;;13.25;8.45;;;18.90;79.60;;;;;;4809518;29;20074;-66
2023/05/22 14:02:08;;;;;;;14.82;8.45;;;18.90;79.40;;;;;;4806467;29;20459;-66
2023/05/22 14:04:34;;;;;;;11.43;7.88;;;18.90;79.20;;;;;;4799091;29;20062;-66
2023/05/22 14:07:00;;;;;;;17.98;8.68;;;18.90;79.10;;;;;;4793074;30;20062;-72
2023/05/22 14:09:26;;;;;;;20.65;9.10;;;19.00;79.20;;;;;;4808844;29;20054;-66
2023/05/22 14:11:51;;;;;;;20.60;9.10;;;19.00;79.20;;;;;;4810746;29;20047;-67
2023/05/22 14:14:22;;;;;;;23.40;9.45;;;19.00;79.20;;;;;;4809964;29;20051;-65
2023/05/22 14:16:52;;;;;;;24.83;9.93;;;19.00;79.20;;;;;;4792772;29;20140;-66
2023/05/22 14:19:19;;;;;;;18.00;9.57;;;19.10;79.50;;;;;;4792442;30;20051;-64
2023/05/22 14:21:47;;;;;;;14.60;8.60;;;19.10;79.50;;;;;;4791547;30;20116;-65
2023/05/22 14:24:13;;;;;;;18.58;8.70;;;19.10;79.40;;;;;;4791396;30;20475;-70
2023/05/22 14:26:39;;;;;;;14.60;9.10;;;19.10;79.30;;;;;;4808494;29;20076;-65
2023/05/22 14:29:07;;;;;;;15.32;8.68;;;19.10;79.20;;;;;;4810566;29;20115;-66
2023/05/22 14:31:47;;;;;;;17.77;9.13;;;19.10;79.30;;;;;;4810169;29;20371;-64
2023/05/22 14:34:16;;;;;;;19.77;10.23;;;19.10;78.90;;;;;;4810489;29;20428;-66
2023/05/22 14:36:45;;;;;;;14.75;8.63;;;19.10;79.20;;;;;;4793640;29;20421;-66
2023/05/22 14:39:11;;;;;;;16.40;8.02;;;19.10;78.90;;;;;;4792401;30;20051;-65
2023/05/22 14:41:37;;;;;;;17.42;9.48;;;19.20;78.70;;;;;;4792224;29;20070;-65
2023/05/22 14:44:02;;;;;;;12.02;8.77;;;19.10;78.80;;;;;;4792277;29;20043;-65
2023/05/22 14:46:30;;;;;;;14.93;9.15;;;19.10;78.80;;;;;;4790662;29;20075;-67
2023/05/22 14:48:56;;;;;;;21.17;9.70;;;19.20;79.50;;;;;;4809980;29;20055;-66
2023/05/22 14:51:21;;;;;;;11.40;7.82;;;19.20;79.20;;;;;;4810173;29;20076;-65
2023/05/22 14:53:47;;;;;;;11.90;7.68;;;19.20;78.90;;;;;;4810314;29;20071;-65
2023/05/22 14:56:13;;;;;;;13.15;7.90;;;19.20;78.80;;;;;;4797278;29;20105;-65
2023/05/22 14:58:39;;;;;;;13.95;8.63;;;19.20;78.80;;;;;;4792023;29;20058;-66
2023/05/22 15:01:04;;;;;;;12.27;8.25;;;19.10;78.90;;;;;;4791927;30;20402;-65
2023/05/22 15:03:30;;;;;;;9.55;7.75;;;19.20;79.00;;;;;;4791767;30;20051;-65
2023/05/22 15:05:56;;;;;;;12.90;7.80;;;19.10;78.90;;;;;;4801972;29;20203;-66
2023/05/22 15:08:22;;;;;;;12.45;8.23;;;19.10;78.80;;;;;;4809931;29;20355;-65
2023/05/22 15:10:48;;;;;;;12.63;9.23;;;19.10;78.70;;;;;;4808507;29;20137;-65
2023/05/22 15:13:13;;;;;;;8.73;6.38;;;19.10;78.90;;;;;;4810202;29;20080;-66
2023/05/22 15:15:40;;;;;;;20.00;8.65;;;19.20;78.70;;;;;;4801023;29;20451;-66
2023/05/22 15:18:09;;;;;;;13.52;7.38;;;19.20;79.00;;;;;;4791606;29;20048;-64
2023/05/22 15:20:35;;;;;;;21.30;8.57;;;19.20;79.00;;;;;;4791511;30;20348;-64
2023/05/22 15:23:02;;;;;;;18.38;7.88;;;19.20;79.50;;;;;;4792316;29;20066;-67
2023/05/22 15:25:27;;;;;;;28.02;10.13;;;19.30;79.70;;;;;;4802927;29;20107;-66
2023/05/22 15:27:58;;;;;;;18.48;7.78;;;19.30;80.10;;;;;;4809361;29;20051;-65
2023/05/22 15:30:24;;;;;;;22.70;8.85;;;19.30;80.00;;;;;;4793751;29;20485;-67
2023/05/22 15:32:53;;;;;;;19.27;8.15;;;19.40;80.30;;;;;;4799238;29;20086;-66
2023/05/22 15:35:19;;;;;;;18.55;8.35;;;19.40;80.40;;;;;;4807822;29;20164;-66
2023/05/22 15:37:45;;;;;;;16.70;6.93;;;19.50;80.30;;;;;;4809455;29;20514;-65
2023/05/22 15:40:15;;;;;;;13.65;6.65;;;19.50;80.00;;;;;;4808978;29;20466;-65
2023/05/22 15:42:43;;;;;;;14.48;6.93;;;19.50;79.80;;;;;;4798268;29;20123;-65
2023/05/22 15:45:09;;;;;;;13.98;6.85;;;19.50;79.70;;;;;;4791029;29;20130;-66
2023/05/22 15:47:35;;;;;;;11.07;6.90;;;19.50;79.60;;;;;;4790712;30;20047;-65
2023/05/22 15:50:00;;;;;;;7.90;6.18;;;19.60;79.70;;;;;;4791415;30;20059;-64
2023/05/22 15:52:26;;;;;;;13.32;5.55;;;19.60;79.50;;;;;;4797354;29;20062;-64
2023/05/22 15:54:52;;;;;;;16.30;6.20;;;19.60;79.30;;;;;;4793264;29;20071;-67
2023/05/22 15:57:18;;;;;;;12.82;6.93;;;19.60;79.10;;;;;;4809107;29;20470;-64
2023/05/22 15:59:45;;;;;;;17.30;8.02;;;19.60;78.90;;;;;;4793500;29;20411;-66
2023/05/22 16:02:12;;;;;;;10.55;6.57;;;19.60;78.80;;;;;;4804490;29;20116;-65
2023/05/22 16:04:37;;;;;;;11.73;6.38;;;19.60;78.70;;;;;;4791323;29;20134;-65
2023/05/22 16:07:03;;;;;;;14.20;6.85;;;19.60;78.60;;;;;;4790917;30;20133;-66
2023/05/22 16:09:29;;;;;;;8.30;5.53;;;19.60;78.60;;;;;;4790988;30;20126;-65
2023/05/22 16:11:55;;;;;;;12.68;6.72;;;19.60;78.50;;;;;;4792194;29;20474;-65
2023/05/22 16:14:20;;;;;;;9.95;6.78;;;19.60;78.50;;;;;;4808341;29;20054;-66
2023/05/22 16:16:46;;;;;;;8.07;6.28;;;19.60;78.40;;;;;;4808493;29;20055;-65
2023/05/22 16:19:15;;;;;;;10.20;6.35;;;19.60;78.30;;;;;;4792979;29;20055;-65
2023/05/22 16:21:40;;;;;;;10.88;6.07;;;19.60;78.20;;;;;;4808254;29;20086;-66
2023/05/22 16:24:06;;;;;;;10.55;6.18;;;19.60;78.00;;;;;;4789958;29;20091;-66
2023/05/22 16:26:32;;;;;;;11.13;6.40;;;19.60;77.90;;;;;;4790225;29;20460;-65
2023/05/22 16:28:58;;;;;;;10.35;6.90;;;19.70;77.90;;;;;;4806460;29;20042;-66
2023/05/22 16:31:23;;;;;;;10.20;6.22;;;19.70;77.80;;;;;;4808461;29;20054;-65
2023/05/22 16:33:49;;;;;;;10.38;5.93;;;19.70;77.80;;;;;;4777098;29;20055;-65
2023/05/22 16:36:15;;;;;;;11.10;5.82;;;19.70;77.70;;;;;;4807725;29;20047;-65
2023/05/22 16:38:40;;;;;;;9.27;5.80;;;19.70;77.70;;;;;;4800790;29;20050;-66
2023/05/22 16:41:06;;;;;;;11.52;5.97;;;19.70;77.70;;;;;;4790971;29;20050;-65
2023/05/22 16:43:32;;;;;;;17.05;6.38;;;19.70;77.60;;;;;;4790281;29;20058;-65
2023/05/22 16:45:58;;;;;;;16.10;6.22;;;19.70;77.40;;;;;;4804578;29;20120;-65
2023/05/22 16:48:23;;;;;;;15.10;6.10;;;19.70;77.30;;;;;;4794297;29;20481;-65
2023/05/22 16:50:49;;;;;;;13.32;6.10;;;19.70;77.20;;;;;;4807703;29;20133;-66
2023/05/22 16:53:17;;;;;;;11.02;5.63;;;19.80;77.20;;;;;;4792024;29;20055;-66
2023/05/22 16:55:43;;;;;;;8.38;5.38;;;19.80;77.10;;;;;;4808352;29;20060;-66
2023/05/22 16:58:10;;;;;;;10.32;5.35;;;19.90;77.10;;;;;;4805944;29;20050;-64
2023/05/22 17:00:36;;;;;;;13.57;5.35;;;19.90;77.10;;;;;;4790139;30;20108;-65
2023/05/22 17:03:02;;;;;;;10.68;6.10;;;19.90;77.10;;;;;;4790054;30;20371;-64
2023/05/22 17:05:27;;;;;;;14.10;5.72;;;19.90;77.20;;;;;;4790215;30;20057;-65
2023/05/22 17:07:53;;;;;;;23.42;7.28;;;19.90;77.30;;;;;;4797998;29;20370;-64
2023/05/22 17:10:19;;;;;;;18.40;6.93;;;20.00;77.50;;;;;;4806846;29;20051;-65
2023/05/22 17:12:45;;;;;;;19.08;5.47;;;20.00;77.70;;;;;;4807850;29;20495;-66
2023/05/22 17:15:11;;;;;;;17.88;6.13;;;20.00;77.60;;;;;;4792300;29;20043;-66
2023/05/22 17:17:37;;;;;;;15.27;5.72;;;20.00;77.50;;;;;;4808055;29;20124;-65
2023/05/22 17:20:06;;;;;;;16.33;5.38;;;19.90;77.50;;;;;;4794253;29;20058;-66
2023/05/22 17:22:31;;;;;;;18.50;5.72;;;19.90;77.50;;;;;;4807276;29;20047;-66
2023/05/22 17:24:57;;;;;;;14.05;5.88;;;19.90;77.70;;;;;;4807747;29;20353;-65
2023/05/22 17:27:23;;;;;;;18.17;6.30;;;19.90;77.70;;;;;;4807771;29;20046;-65
2023/05/22 17:29:49;;;;;;;13.43;5.47;;;19.90;77.80;;;;;;4807738;29;20535;-66
2023/05/22 17:32:14;;;;;;;12.52;5.32;;;19.90;77.80;;;;;;4804419;29;20129;-66